Merepoint, Maine
Current Conditions -  °F | °C
As of 8:51 PM on Friday 24 Oct 2014 (Local Time) from KPWM Reporting Station
Overcast Overcast  
Wind Chill: 51°   Ceiling: 5500
Heat Index: 51°   Visibility: 10mi
Dew Point: 43°   Wind: 7mph
Humidity: 74%   Direction: 320°NW
Pressure: 29.71"   Gusts: NA
Location:  43.82°N, 70.03°W
Report Text: KPWM 250051Z 32006KT 10SM FEW035 OVC055 11/06 A2971 RMK AO2 SLP061 T01060061
Loading
Personal Weather Stations






























Interactive Weather Map
Tropical Storm Tracking
New forecast layout! Learn more

10-Day Weather Forecast

Advertisements
Track Severe Weather on mobile